Time;durP1;ratioP1;P1;durP2;ratioP2;P2;SDS_P1;SDS_P2;PMS_P1;PMS_P2;Temp;Humidity;BMP_temperature;BMP_pressure;BME280_temperature;BME280_humidity;BME280_pressure;Samples;Min_cycle;Max_cycle;Signal;HPM_P1;HPM_P2
2023/04/06 00:00:56;;;;;;;19.47;17.97;;;1.00;99.90;;;;;;5059460;28;20189;-45
2023/04/06 00:03:21;;;;;;;19.83;18.27;;;1.00;99.90;;;;;;5059433;28;20238;-41
2023/04/06 00:05:48;;;;;;;17.77;16.47;;;1.00;99.90;;;;;;5041451;28;20193;-47
2023/04/06 00:08:13;;;;;;;18.58;17.25;;;1.00;99.90;;;;;;5059461;28;20185;-44
2023/04/06 00:10:39;;;;;;;18.97;17.47;;;1.00;99.90;;;;;;5059564;28;20678;-43
2023/04/06 00:13:06;;;;;;;19.33;17.83;;;1.00;99.90;;;;;;5059713;28;20562;-49
2023/04/06 00:15:32;;;;;;;18.40;16.90;;;0.90;99.90;;;;;;5059181;28;20192;-48
2023/04/06 00:17:58;;;;;;;19.03;17.60;;;0.80;99.90;;;;;;5059263;28;20584;-48
2023/04/06 00:20:23;;;;;;;18.40;16.90;;;0.80;99.90;;;;;;5059699;28;20561;-45
2023/04/06 00:22:49;;;;;;;17.47;16.13;;;0.80;99.90;;;;;;5059472;28;20703;-47
2023/04/06 00:25:16;;;;;;;17.83;16.52;;;0.70;99.90;;;;;;5059535;28;20182;-50
2023/04/06 00:27:42;;;;;;;18.15;16.65;;;0.70;99.90;;;;;;5059157;28;20192;-46
2023/04/06 00:30:08;;;;;;;18.20;16.73;;;0.70;99.90;;;;;;5059209;28;20436;-45
2023/04/06 00:32:35;;;;;;;18.05;16.75;;;0.70;99.90;;;;;;5059314;28;20459;-46
2023/04/06 00:35:05;;;;;;;18.25;16.73;;;0.60;99.90;;;;;;5059485;28;20601;-48
2023/04/06 00:37:32;;;;;;;18.23;16.77;;;0.60;99.90;;;;;;5059670;28;20207;-50
2023/04/06 00:39:57;;;;;;;18.50;17.10;;;0.50;99.90;;;;;;5059163;28;20193;-46
2023/04/06 00:42:27;;;;;;;17.50;16.30;;;0.50;99.90;;;;;;5059340;28;20516;-47
2023/04/06 00:44:57;;;;;;;17.77;16.48;;;0.50;99.90;;;;;;5059295;28;20185;-44
2023/04/06 00:47:27;;;;;;;18.27;16.92;;;0.40;99.90;;;;;;5059152;28;20185;-49
2023/04/06 00:49:56;;;;;;;18.65;17.15;;;0.40;99.90;;;;;;5059145;28;20174;-46
2023/04/06 00:52:22;;;;;;;18.27;16.75;;;0.30;99.90;;;;;;5058882;28;20484;-48
2023/04/06 00:54:49;;;;;;;18.53;17.07;;;0.30;99.90;;;;;;5059478;28;20919;-48
2023/04/06 00:57:15;;;;;;;17.45;15.90;;;0.30;99.90;;;;;;5058826;28;20418;-47
2023/04/06 00:59:41;;;;;;;17.53;16.03;;;0.30;99.90;;;;;;5058970;28;20189;-47
2023/04/06 01:02:08;;;;;;;17.80;16.25;;;0.30;99.90;;;;;;5058784;28;20419;-45
2023/04/06 01:04:34;;;;;;;18.50;17.10;;;0.20;99.90;;;;;;5059002;28;20442;-46
2023/04/06 01:07:00;;;;;;;18.20;16.60;;;0.20;99.90;;;;;;5059061;28;20635;-45
2023/04/06 01:09:29;;;;;;;18.50;17.00;;;0.20;99.90;;;;;;5060367;28;20189;-46
2023/04/06 01:11:56;;;;;;;18.15;16.80;;;0.20;99.90;;;;;;5062750;28;20854;-45
2023/04/06 01:14:25;;;;;;;17.23;15.93;;;0.20;99.90;;;;;;5062894;28;20580;-45
2023/04/06 01:16:51;;;;;;;18.15;16.55;;;0.20;99.90;;;;;;5062471;28;20639;-44
2023/04/06 01:19:17;;;;;;;18.92;17.33;;;0.20;99.90;;;;;;5062329;28;20212;-47
2023/04/06 01:21:43;;;;;;;18.27;16.77;;;0.20;99.90;;;;;;5062256;28;20185;-44
2023/04/06 01:24:09;;;;;;;18.23;16.70;;;0.20;99.90;;;;;;5062571;28;20213;-45
2023/04/06 01:26:35;;;;;;;18.83;17.27;;;0.20;99.90;;;;;;5062329;28;20169;-46
2023/04/06 01:29:02;;;;;;;19.15;17.65;;;0.20;99.90;;;;;;5062182;28;20192;-46
2023/04/06 01:31:28;;;;;;;18.08;16.55;;;0.10;99.90;;;;;;5062298;28;20209;-48
2023/04/06 01:33:54;;;;;;;18.93;17.43;;;0.10;99.90;;;;;;5061937;28;20719;-48
2023/04/06 01:36:20;;;;;;;18.92;17.40;;;0.10;99.90;;;;;;5044543;28;20453;-43
2023/04/06 01:38:46;;;;;;;18.40;17.00;;;0.10;99.90;;;;;;5062462;28;20189;-47
2023/04/06 01:41:12;;;;;;;19.10;17.50;;;0.10;99.90;;;;;;5062464;28;20419;-46
2023/04/06 01:43:37;;;;;;;20.00;18.17;;;0.00;99.90;;;;;;5062029;28;20446;-45
2023/04/06 01:46:03;;;;;;;18.80;17.00;;;0.00;99.90;;;;;;5061885;28;20196;-46
2023/04/06 01:48:29;;;;;;;18.77;17.38;;;0.00;99.90;;;;;;5061940;28;20551;-49
2023/04/06 01:50:55;;;;;;;19.30;17.60;;;0.00;99.90;;;;;;5061839;28;20185;-49
2023/04/06 01:53:21;;;;;;;19.63;18.00;;;-0.10;99.90;;;;;;5061630;28;20686;-46
2023/04/06 01:55:47;;;;;;;19.42;17.83;;;-0.10;99.90;;;;;;5062031;28;20701;-45
2023/04/06 01:58:13;;;;;;;20.67;18.63;;;-0.10;99.90;;;;;;5061576;28;20287;-50
2023/04/06 02:00:39;;;;;;;19.23;17.63;;;-0.10;99.90;;;;;;5061523;28;20646;-47
2023/04/06 02:03:05;;;;;;;19.50;17.60;;;-0.10;99.90;;;;;;5061675;28;20477;-46
2023/04/06 02:05:38;;;;;;;20.08;18.38;;;-0.10;99.90;;;;;;5061600;28;20174;-46
2023/04/06 02:08:05;;;;;;;19.23;17.63;;;-0.20;99.90;;;;;;5061499;28;20189;-49
2023/04/06 02:10:31;;;;;;;18.63;17.15;;;-0.20;99.90;;;;;;5061541;28;20531;-44
2023/04/06 02:12:57;;;;;;;20.40;18.30;;;-0.20;99.90;;;;;;5061493;28;20193;-45
2023/04/06 02:15:23;;;;;;;20.67;18.77;;;-0.20;99.90;;;;;;5061361;28;20250;-46
2023/04/06 02:17:48;;;;;;;18.77;17.20;;;-0.20;99.90;;;;;;5060986;28;20185;-45
2023/04/06 02:20:14;;;;;;;18.90;17.20;;;-0.20;99.90;;;;;;5043553;28;20672;-46
2023/04/06 02:22:40;;;;;;;19.07;17.37;;;-0.30;99.90;;;;;;5061036;28;20245;-43
2023/04/06 02:25:06;;;;;;;20.27;18.50;;;-0.30;99.90;;;;;;5061450;28;20415;-49
2023/04/06 02:27:32;;;;;;;19.10;17.38;;;-0.30;99.90;;;;;;5060984;28;20185;-46
2023/04/06 02:29:57;;;;;;;20.30;18.60;;;-0.20;99.90;;;;;;5061402;28;20189;-46
2023/04/06 02:32:24;;;;;;;19.10;17.50;;;-0.20;99.90;;;;;;5061315;28;20193;-45
2023/04/06 02:34:49;;;;;;;18.98;17.30;;;-0.30;99.90;;;;;;5061120;28;20196;-48
2023/04/06 02:37:15;;;;;;;19.70;18.10;;;-0.30;99.90;;;;;;5061119;28;20170;-44
2023/04/06 02:39:41;;;;;;;19.70;17.90;;;-0.30;99.90;;;;;;5060984;28;20193;-46
2023/04/06 02:42:08;;;;;;;20.53;18.73;;;-0.30;99.90;;;;;;5061126;28;20849;-47
2023/04/06 02:44:34;;;;;;;20.85;19.00;;;-0.30;99.90;;;;;;5061033;28;20830;-45
2023/04/06 02:46:59;;;;;;;21.40;19.50;;;-0.30;99.90;;;;;;5061123;28;20295;-48
2023/04/06 02:49:25;;;;;;;18.87;17.27;;;-0.40;99.90;;;;;;5061148;28;20275;-45
2023/04/06 02:51:51;;;;;;;19.63;18.03;;;-0.40;99.90;;;;;;5059766;28;20192;-44
2023/04/06 02:54:16;;;;;;;20.37;18.73;;;-0.40;99.90;;;;;;5060551;28;20292;-44
2023/04/06 02:56:42;;;;;;;19.50;17.80;;;-0.50;99.90;;;;;;5043014;28;20195;-47
2023/04/06 02:59:08;;;;;;;19.52;17.90;;;-0.50;99.90;;;;;;5060443;28;20238;-51
2023/04/06 03:01:34;;;;;;;18.83;17.33;;;-0.50;99.90;;;;;;5060106;28;20181;-47
2023/04/06 03:04:00;;;;;;;20.17;18.37;;;-0.50;99.90;;;;;;5060854;28;20235;-46
2023/04/06 03:06:26;;;;;;;19.30;17.70;;;-0.50;99.90;;;;;;5060509;28;20352;-44
2023/04/06 03:08:51;;;;;;;19.25;17.70;;;-0.60;99.90;;;;;;5060364;28;20423;-50
2023/04/06 03:11:17;;;;;;;19.10;17.50;;;-0.60;99.90;;;;;;5060301;28;20246;-47
2023/04/06 03:13:43;;;;;;;20.07;18.27;;;-0.60;99.90;;;;;;5060367;28;20231;-49
2023/04/06 03:16:08;;;;;;;20.83;18.83;;;-0.60;99.90;;;;;;5059955;28;20180;-47
2023/04/06 03:18:34;;;;;;;20.70;18.90;;;-0.60;99.90;;;;;;5060071;28;20188;-46
2023/04/06 03:21:00;;;;;;;20.10;18.40;;;-0.60;99.90;;;;;;5060426;28;20181;-45
2023/04/06 03:23:26;;;;;;;21.60;19.48;;;-0.70;99.90;;;;;;5059842;28;20714;-45
2023/04/06 03:25:52;;;;;;;19.77;18.17;;;-0.70;99.90;;;;;;5060282;28;20438;-46
2023/04/06 03:28:17;;;;;;;19.70;17.70;;;-0.80;99.90;;;;;;5059938;28;20219;-47
2023/04/06 03:30:43;;;;;;;22.30;20.23;;;-0.80;99.90;;;;;;5059550;28;20192;-47
2023/04/06 03:33:09;;;;;;;19.57;17.80;;;-0.80;99.90;;;;;;5059216;28;20212;-47
2023/04/06 03:35:36;;;;;;;20.97;19.00;;;-0.80;99.90;;;;;;5059752;28;20189;-50
2023/04/06 03:38:02;;;;;;;20.15;18.38;;;-0.80;99.90;;;;;;5060031;28;20410;-44
2023/04/06 03:40:28;;;;;;;19.85;18.00;;;-0.80;99.90;;;;;;5059711;28;20178;-49
2023/04/06 03:42:54;;;;;;;21.37;19.30;;;-0.80;99.90;;;;;;5059690;28;20189;-46
2023/04/06 03:45:19;;;;;;;20.40;18.50;;;-0.80;99.90;;;;;;5059728;28;20654;-47
2023/04/06 03:47:46;;;;;;;19.77;17.93;;;-0.80;99.90;;;;;;5059666;28;20200;-47
2023/04/06 03:50:11;;;;;;;20.45;18.45;;;-0.80;99.90;;;;;;5059835;28;20752;-47
2023/04/06 03:52:37;;;;;;;20.83;19.00;;;-0.80;99.90;;;;;;5059519;28;20201;-48
2023/04/06 03:55:03;;;;;;;20.23;18.40;;;-0.90;99.90;;;;;;5059576;28;20184;-46
2023/04/06 03:57:29;;;;;;;21.60;19.58;;;-0.80;99.90;;;;;;5059698;28;20204;-46
2023/04/06 03:59:54;;;;;;;23.07;20.37;;;-0.90;99.90;;;;;;5059279;28;20189;-48
2023/04/06 04:02:20;;;;;;;20.90;18.97;;;-0.90;99.90;;;;;;5059794;28;20199;-44
2023/04/06 04:04:46;;;;;;;20.97;19.00;;;-0.80;99.90;;;;;;5059708;28;20180;-46
2023/04/06 04:07:11;;;;;;;19.43;17.70;;;-0.90;99.90;;;;;;5060156;28;20196;-46
2023/04/06 04:09:37;;;;;;;20.20;18.20;;;-0.90;99.90;;;;;;5060176;28;20185;-47
2023/04/06 04:12:03;;;;;;;21.90;19.67;;;-0.90;99.90;;;;;;5059575;28;20413;-47
2023/04/06 04:14:29;;;;;;;21.80;19.70;;;-0.90;99.90;;;;;;5059449;28;20188;-45
2023/04/06 04:16:54;;;;;;;19.53;17.60;;;-1.00;99.90;;;;;;5059288;28;20195;-47
2023/04/06 04:19:20;;;;;;;19.93;18.03;;;-1.00;99.90;;;;;;5059753;28;20413;-46
2023/04/06 04:21:46;;;;;;;21.23;19.27;;;-1.00;99.90;;;;;;5059467;28;20232;-44
2023/04/06 04:24:12;;;;;;;21.88;19.73;;;-1.00;99.90;;;;;;5059297;28;20215;-44
2023/04/06 04:26:39;;;;;;;20.00;18.10;;;-1.00;99.90;;;;;;5059798;28;20512;-47
2023/04/06 04:29:05;;;;;;;21.60;19.60;;;-1.10;99.90;;;;;;5059005;28;20580;-45
2023/04/06 04:31:31;;;;;;;20.73;18.83;;;-1.10;99.90;;;;;;5059507;28;20192;-46
2023/04/06 04:33:58;;;;;;;21.80;19.80;;;-1.10;99.90;;;;;;5040953;28;20507;-46
2023/04/06 04:36:25;;;;;;;19.98;18.17;;;-1.10;99.90;;;;;;5041416;28;20181;-45
2023/04/06 04:38:51;;;;;;;22.67;20.52;;;-1.10;99.90;;;;;;5059050;28;20256;-45
2023/04/06 04:41:17;;;;;;;23.43;21.27;;;-1.10;99.90;;;;;;5059212;28;20662;-48
2023/04/06 04:43:42;;;;;;;21.93;20.00;;;-1.10;99.90;;;;;;5059545;28;20824;-47
2023/04/06 04:46:08;;;;;;;21.17;19.00;;;-1.10;99.90;;;;;;5063426;28;20184;-45
2023/04/06 04:48:34;;;;;;;20.80;18.60;;;-1.10;99.90;;;;;;5062902;28;20188;-44
2023/04/06 04:51:00;;;;;;;21.73;19.40;;;-1.10;99.90;;;;;;5063109;28;20268;-50
2023/04/06 04:53:26;;;;;;;22.33;20.10;;;-1.00;99.90;;;;;;5062874;28;20881;-46
2023/04/06 04:55:51;;;;;;;22.60;20.40;;;-1.00;99.90;;;;;;5062897;28;20264;-47
2023/04/06 04:58:19;;;;;;;21.80;19.47;;;-1.00;99.90;;;;;;5062874;28;20211;-42
2023/04/06 05:00:45;;;;;;;21.88;19.88;;;-1.00;99.90;;;;;;5062936;28;20248;-44
2023/04/06 05:03:20;;;;;;;22.30;20.20;;;-1.00;99.90;;;;;;5062941;28;20260;-45
2023/04/06 05:05:46;;;;;;;22.05;20.02;;;-1.00;99.90;;;;;;5063128;28;20208;-45
2023/04/06 05:08:12;;;;;;;21.13;19.13;;;-1.00;99.90;;;;;;5044634;28;20232;-43
2023/04/06 05:10:38;;;;;;;22.00;19.80;;;-1.00;99.90;;;;;;5062562;28;20193;-40
2023/04/06 05:13:03;;;;;;;22.60;20.07;;;-0.90;99.90;;;;;;5062908;28;20292;-40
2023/04/06 05:15:29;;;;;;;20.50;18.50;;;-0.90;99.90;;;;;;5062535;28;20658;-42
2023/04/06 05:17:55;;;;;;;21.50;19.20;;;-0.80;99.90;;;;;;5061723;28;20185;-39
2023/04/06 05:20:21;;;;;;;21.87;19.70;;;-0.80;99.90;;;;;;5062672;28;20199;-40
2023/04/06 05:22:46;;;;;;;33.80;22.63;;;-0.70;99.90;;;;;;5062457;28;20236;-42
2023/04/06 05:25:13;;;;;;;22.43;19.50;;;-0.60;99.90;;;;;;5044831;28;20735;-42
2023/04/06 05:27:39;;;;;;;22.60;19.65;;;-0.50;99.90;;;;;;5062846;28;20185;-41
2023/04/06 05:30:06;;;;;;;21.88;19.77;;;-0.50;99.90;;;;;;5062260;28;20189;-41
2023/04/06 05:32:32;;;;;;;21.75;19.60;;;-0.50;99.90;;;;;;5062442;28;20240;-41
2023/04/06 05:34:57;;;;;;;21.60;19.60;;;-0.40;99.90;;;;;;5062265;28;20606;-41
2023/04/06 05:37:23;;;;;;;20.97;18.97;;;-0.30;99.90;;;;;;5062612;28;20187;-40
2023/04/06 05:39:49;;;;;;;21.07;18.87;;;-0.20;99.90;;;;;;5061957;28;20635;-41
2023/04/06 05:42:15;;;;;;;22.00;19.85;;;-0.10;99.90;;;;;;5044058;28;20197;-41
2023/04/06 05:44:41;;;;;;;22.00;19.70;;;-0.10;99.90;;;;;;5062266;28;20204;-40
2023/04/06 05:47:06;;;;;;;21.83;19.67;;;-0.10;99.90;;;;;;5061822;28;20546;-41
2023/04/06 05:49:32;;;;;;;22.33;20.23;;;-0.10;99.90;;;;;;5061751;28;20238;-40
2023/04/06 05:51:58;;;;;;;20.80;18.80;;;-0.10;99.90;;;;;;5061740;28;20189;-41
2023/04/06 05:54:24;;;;;;;20.80;18.73;;;0.00;99.90;;;;;;5061286;28;20177;-41
2023/04/06 05:56:49;;;;;;;20.13;18.40;;;0.00;99.90;;;;;;5062000;28;20180;-40
2023/04/06 05:59:15;;;;;;;20.80;18.80;;;0.10;99.90;;;;;;5061517;28;20425;-43
2023/04/06 06:01:40;;;;;;;21.83;19.63;;;0.10;99.90;;;;;;5062038;28;20685;-41
2023/04/06 06:04:06;;;;;;;21.80;19.70;;;0.20;99.90;;;;;;5061433;28;20193;-41
2023/04/06 06:06:32;;;;;;;21.90;20.00;;;0.30;99.90;;;;;;5062204;28;20187;-41
2023/04/06 06:09:02;;;;;;;22.17;20.07;;;0.30;99.90;;;;;;5061873;28;20484;-40
2023/04/06 06:11:28;;;;;;;21.38;19.45;;;0.40;99.90;;;;;;5061646;28;20188;-40
2023/04/06 06:13:54;;;;;;;21.30;19.50;;;0.40;99.90;;;;;;5061975;28;20484;-40
2023/04/06 06:16:19;;;;;;;22.27;20.07;;;0.50;99.90;;;;;;5061854;28;20181;-40
2023/04/06 06:18:45;;;;;;;21.27;19.47;;;0.60;99.90;;;;;;5061447;28;20918;-41
2023/04/06 06:21:14;;;;;;;22.47;20.37;;;0.70;99.90;;;;;;5061732;28;20260;-43
2023/04/06 06:23:42;;;;;;;21.10;19.05;;;0.80;99.90;;;;;;5061545;28;20237;-40
2023/04/06 06:26:07;;;;;;;20.75;18.85;;;0.90;99.90;;;;;;5061435;28;20266;-40
2023/04/06 06:28:33;;;;;;;21.80;19.77;;;1.00;99.90;;;;;;5061751;28;20192;-42
2023/04/06 06:30:59;;;;;;;22.40;20.20;;;1.10;99.90;;;;;;5061398;28;20193;-41
2023/04/06 06:33:26;;;;;;;21.03;19.07;;;1.20;99.90;;;;;;5061066;28;20295;-40
2023/04/06 06:35:52;;;;;;;20.98;19.08;;;1.40;99.90;;;;;;5060807;28;20211;-40
2023/04/06 06:38:18;;;;;;;21.92;19.63;;;1.50;99.90;;;;;;5060981;28;20607;-40
2023/04/06 06:40:45;;;;;;;20.85;19.00;;;1.60;99.90;;;;;;5042671;28;20275;-45
2023/04/06 06:43:11;;;;;;;19.63;17.98;;;1.70;99.90;;;;;;5060827;28;20204;-41
2023/04/06 06:45:37;;;;;;;20.97;19.17;;;1.80;99.90;;;;;;5061059;28;20182;-43
2023/04/06 06:48:02;;;;;;;20.83;18.73;;;1.90;99.90;;;;;;5060744;28;20185;-41
2023/04/06 06:50:28;;;;;;;20.07;18.37;;;2.10;99.90;;;;;;5060918;28;20554;-41
2023/04/06 06:52:54;;;;;;;21.07;18.23;;;2.30;99.90;;;;;;5060397;28;20244;-42
2023/04/06 06:55:20;;;;;;;19.05;17.45;;;2.30;99.90;;;;;;5060749;28;20524;-40
2023/04/06 06:57:46;;;;;;;20.47;18.60;;;2.40;99.90;;;;;;5060760;28;20182;-41
2023/04/06 07:00:13;;;;;;;19.90;18.15;;;2.40;99.90;;;;;;5060310;28;20181;-41
2023/04/06 07:02:39;;;;;;;18.48;16.80;;;2.50;99.90;;;;;;5060689;28;20192;-42
2023/04/06 07:05:05;;;;;;;18.60;16.95;;;2.60;99.90;;;;;;5060564;28;20221;-44
2023/04/06 07:07:33;;;;;;;19.05;17.45;;;2.70;99.90;;;;;;5059925;28;20255;-43
2023/04/06 07:09:59;;;;;;;17.85;16.30;;;2.80;99.90;;;;;;5060429;28;20169;-42
2023/04/06 07:12:25;;;;;;;18.98;17.27;;;2.90;99.90;;;;;;5060505;28;20209;-40
2023/04/06 07:14:51;;;;;;;19.37;17.77;;;3.00;99.90;;;;;;5060336;28;20191;-41
2023/04/06 07:17:17;;;;;;;18.70;17.10;;;3.10;99.90;;;;;;5060220;28;20181;-41
2023/04/06 07:19:42;;;;;;;18.33;16.90;;;3.20;99.90;;;;;;5060053;28;20550;-41
2023/04/06 07:22:08;;;;;;;18.60;17.07;;;3.30;99.90;;;;;;5059851;28;20783;-43
2023/04/06 07:24:34;;;;;;;18.37;16.83;;;3.50;99.90;;;;;;5060704;28;20597;-40
2023/04/06 07:27:02;;;;;;;18.40;16.80;;;3.60;99.90;;;;;;5060157;28;20442;-41
2023/04/06 07:29:28;;;;;;;18.20;16.55;;;3.70;99.90;;;;;;5060477;28;21181;-41
2023/04/06 07:31:54;;;;;;;17.70;16.30;;;3.80;99.90;;;;;;5060190;28;20193;-43
2023/04/06 07:34:21;;;;;;;19.25;17.60;;;4.00;99.90;;;;;;5041972;28;20666;-46
2023/04/06 07:36:46;;;;;;;18.45;16.88;;;4.10;99.90;;;;;;5060131;28;20181;-41
2023/04/06 07:39:12;;;;;;;18.40;17.00;;;4.20;99.90;;;;;;5060109;28;20898;-42
2023/04/06 07:41:38;;;;;;;19.37;17.83;;;4.40;99.90;;;;;;5059742;28;20378;-41
2023/04/06 07:44:04;;;;;;;18.77;17.07;;;4.50;99.90;;;;;;5060397;28;20185;-42
2023/04/06 07:46:30;;;;;;;17.87;16.40;;;4.70;99.90;;;;;;5059744;28;20662;-42
2023/04/06 07:48:57;;;;;;;17.90;16.30;;;4.90;99.90;;;;;;5059838;28;20498;-41
2023/04/06 07:51:23;;;;;;;17.25;15.95;;;5.00;99.90;;;;;;5059677;28;20181;-41
2023/04/06 07:53:50;;;;;;;17.73;16.33;;;5.20;99.90;;;;;;5059537;28;20212;-41
2023/04/06 07:56:16;;;;;;;18.33;16.83;;;5.30;99.50;;;;;;5059722;28;20196;-41
2023/04/06 07:58:41;;;;;;;18.10;16.70;;;5.60;99.50;;;;;;5059729;28;20185;-41
2023/04/06 08:01:07;;;;;;;18.17;16.73;;;5.70;98.40;;;;;;5059670;28;20197;-42
2023/04/06 08:03:36;;;;;;;17.67;16.33;;;5.90;98.10;;;;;;5059822;28;20189;-42
2023/04/06 08:06:02;;;;;;;17.80;16.60;;;6.20;96.90;;;;;;5059959;28;20194;-41
2023/04/06 08:08:29;;;;;;;16.25;15.00;;;6.40;95.40;;;;;;5059418;28;20547;-42
2023/04/06 08:10:55;;;;;;;17.30;15.90;;;6.50;94.70;;;;;;5059341;28;20281;-40
2023/04/06 08:13:21;;;;;;;17.07;15.87;;;6.70;94.40;;;;;;5059816;28;20467;-41
2023/04/06 08:15:46;;;;;;;18.40;17.00;;;6.80;93.30;;;;;;5059568;28;20420;-41
2023/04/06 08:18:12;;;;;;;18.87;17.27;;;7.00;93.00;;;;;;5059127;28;20207;-41
2023/04/06 08:20:39;;;;;;;15.40;14.20;;;7.20;90.50;;;;;;5059256;28;20177;-41
2023/04/06 08:23:06;;;;;;;17.23;16.03;;;7.40;87.50;;;;;;5059113;28;21103;-41
2023/04/06 08:25:34;;;;;;;18.00;16.70;;;7.60;83.40;;;;;;5059787;28;20503;-44
2023/04/06 08:27:59;;;;;;;17.00;15.80;;;7.90;75.50;;;;;;5059746;28;20893;-40
2023/04/06 08:30:25;;;;;;;16.50;15.20;;;8.10;72.80;;;;;;5059179;28;20613;-41
2023/04/06 08:32:51;;;;;;;16.90;15.60;;;8.50;72.20;;;;;;5059214;28;20658;-41
2023/04/06 08:35:16;;;;;;;18.07;16.80;;;8.80;66.80;;;;;;5059491;28;20190;-44
2023/04/06 08:37:42;;;;;;;18.13;16.90;;;9.00;63.10;;;;;;5060159;28;20379;-41
2023/04/06 08:40:08;;;;;;;15.73;14.73;;;9.10;56.60;;;;;;5059379;28;20189;-41
2023/04/06 08:42:40;;;;;;;17.33;15.90;;;9.40;56.90;;;;;;5059328;28;20315;-43
2023/04/06 08:45:06;;;;;;;17.53;16.23;;;9.80;55.70;;;;;;5059159;28;20478;-40
2023/04/06 08:47:33;;;;;;;15.90;14.87;;;10.30;51.40;;;;;;5059331;28;20423;-44
2023/04/06 08:50:04;;;;;;;15.40;14.40;;;10.80;50.90;;;;;;5059347;28;20936;-44
2023/04/06 08:52:33;;;;;;;16.63;15.63;;;11.50;48.00;;;;;;5059245;28;20462;-41
2023/04/06 08:54:59;;;;;;;15.67;14.67;;;12.20;46.90;;;;;;5059184;28;20429;-40
2023/04/06 08:57:26;;;;;;;16.00;14.90;;;12.80;43.40;;;;;;5058863;28;20399;-44
2023/04/06 08:59:52;;;;;;;16.47;15.47;;;13.30;42.70;;;;;;5058959;28;20417;-42
2023/04/06 09:02:19;;;;;;;15.37;14.40;;;13.90;40.90;;;;;;5059109;28;20434;-41
2023/04/06 09:04:48;;;;;;;15.57;14.47;;;14.60;37.00;;;;;;5058967;28;20474;-41
2023/04/06 09:07:15;;;;;;;14.90;13.70;;;15.10;34.20;;;;;;5058778;28;20506;-44
2023/04/06 09:09:47;;;;;;;15.10;14.20;;;15.40;32.70;;;;;;5058844;28;20419;-44
2023/04/06 09:12:24;;;;;;;14.90;14.07;;;15.70;31.30;;;;;;5058943;28;20431;-45
2023/04/06 09:14:50;;;;;;;15.87;15.00;;;16.40;28.40;;;;;;5059004;28;20433;-44
2023/04/06 09:17:24;;;;;;;14.73;13.93;;;16.70;28.30;;;;;;5059037;28;20407;-42
2023/04/06 09:19:49;;;;;;;15.53;14.63;;;17.20;27.80;;;;;;5058743;28;20516;-49
2023/04/06 09:22:15;;;;;;;15.67;14.77;;;17.70;27.20;;;;;;5058828;28;20474;-48
2023/04/06 09:24:47;;;;;;;15.33;14.53;;;17.70;23.60;;;;;;5058684;28;20188;-47
2023/04/06 09:27:13;;;;;;;15.77;14.87;;;18.00;22.50;;;;;;5058926;28;20924;-49
2023/04/06 09:29:40;;;;;;;14.63;13.83;;;17.80;22.10;;;;;;5059209;28;20419;-49
2023/04/06 09:32:07;;;;;;;14.03;13.30;;;17.80;22.40;;;;;;5062309;28;20423;-46
2023/04/06 09:34:38;;;;;;;15.90;15.00;;;17.90;23.10;;;;;;5062772;28;20770;-46
2023/04/06 09:37:14;;;;;;;13.83;13.03;;;18.10;20.50;;;;;;5062551;28;20456;-49
2023/04/06 09:39:40;;;;;;;15.87;14.97;;;17.30;19.20;;;;;;5062382;28;21196;-45
2023/04/06 09:42:06;;;;;;;13.83;13.13;;;16.80;20.10;;;;;;5062320;28;20439;-44
2023/04/06 09:44:32;;;;;;;15.13;14.23;;;17.70;21.80;;;;;;5062318;28;20975;-48
2023/04/06 09:46:57;;;;;;;14.67;13.97;;;18.20;21.40;;;;;;5061975;28;20549;-46
2023/04/06 09:49:27;;;;;;;15.30;14.43;;;18.90;19.30;;;;;;5062237;28;20200;-47
2023/04/06 09:52:12;;;;;;;15.30;14.50;;;19.40;17.90;;;;;;5062201;28;20211;-47
2023/04/06 09:54:38;;;;;;;15.27;14.47;;;19.70;19.00;;;;;;5059999;28;20449;-44
2023/04/06 09:57:36;;;;;;;14.30;13.50;;;19.80;18.80;;;;;;5061726;28;20415;-47
2023/04/06 10:00:11;;;;;;;15.40;14.50;;;20.00;20.50;;;;;;5062009;28;20841;-49
2023/04/06 10:02:55;;;;;;;14.03;13.13;;;20.60;19.60;;;;;;5061866;28;20463;-47
2023/04/06 10:05:39;;;;;;;15.00;13.97;;;20.70;19.60;;;;;;5062092;28;20984;-47
2023/04/06 10:08:13;;;;;;;15.47;14.53;;;21.00;19.70;;;;;;5061976;28;20470;-49
2023/04/06 10:10:39;;;;;;;14.00;13.20;;;21.40;18.90;;;;;;5061481;28;20415;-47
2023/04/06 10:13:05;;;;;;;15.33;14.57;;;22.10;15.80;;;;;;5062095;28;20944;-48
2023/04/06 10:15:31;;;;;;;14.00;13.30;;;21.60;14.30;;;;;;5061914;28;20876;-47
2023/04/06 10:17:58;;;;;;;14.63;13.77;;;21.70;17.50;;;;;;5061247;28;20589;-48
2023/04/06 10:20:41;;;;;;;15.53;14.73;;;21.70;17.70;;;;;;5061539;28;20454;-47
2023/04/06 10:23:15;;;;;;;13.13;12.43;;;21.30;15.10;;;;;;5061111;28;20467;-48
2023/04/06 10:25:55;;;;;;;15.17;14.37;;;20.90;16.10;;;;;;5061492;28;20807;-48
2023/04/06 10:28:21;;;;;;;15.20;14.37;;;20.10;14.30;;;;;;5061499;28;20510;-46
2023/04/06 10:30:46;;;;;;;16.43;15.53;;;18.70;14.90;;;;;;5061866;28;20446;-45
2023/04/06 10:33:13;;;;;;;16.20;15.20;;;17.40;15.40;;;;;;5061898;28;20268;-49
2023/04/06 10:35:39;;;;;;;14.97;14.27;;;17.20;16.10;;;;;;5061590;28;20180;-48
2023/04/06 10:38:05;;;;;;;15.90;15.00;;;17.40;16.90;;;;;;5061209;28;20779;-47
2023/04/06 10:40:31;;;;;;;15.27;14.33;;;17.90;18.40;;;;;;5060940;28;20208;-48
2023/04/06 10:43:11;;;;;;;15.90;14.90;;;17.50;19.40;;;;;;5061189;28;20470;-50
2023/04/06 10:45:37;;;;;;;15.10;14.10;;;16.80;17.90;;;;;;5061383;28;20414;-48
2023/04/06 10:48:17;;;;;;;15.27;14.47;;;17.00;18.10;;;;;;5060643;28;20416;-45
2023/04/06 10:50:51;;;;;;;15.90;14.90;;;17.70;18.30;;;;;;5061235;28;20450;-46
2023/04/06 10:53:27;;;;;;;15.03;14.13;;;18.30;18.10;;;;;;5061264;28;20712;-50
2023/04/06 10:55:56;;;;;;;15.50;14.60;;;19.50;17.60;;;;;;5061235;28;20419;-46
2023/04/06 10:58:28;;;;;;;15.93;15.03;;;20.40;16.20;;;;;;5060809;28;20415;-48
2023/04/06 11:00:55;;;;;;;14.50;13.70;;;20.50;16.60;;;;;;5060859;28;20600;-46
2023/04/06 11:03:21;;;;;;;15.23;14.23;;;20.30;16.00;;;;;;5060776;28;20492;-46
2023/04/06 11:05:51;;;;;;;14.83;14.10;;;19.90;15.10;;;;;;5060953;28;20423;-49
2023/04/06 11:08:27;;;;;;;14.90;14.10;;;19.20;16.50;;;;;;5060512;28;20415;-48
2023/04/06 11:11:04;;;;;;;14.90;14.10;;;18.40;17.70;;;;;;5060629;28;20418;-46
2023/04/06 11:13:48;;;;;;;15.20;14.40;;;17.80;17.70;;;;;;5060673;28;21034;-46
2023/04/06 11:16:20;;;;;;;13.77;13.00;;;17.20;19.40;;;;;;5060536;28;20526;-48
2023/04/06 11:19:00;;;;;;;14.93;14.10;;;16.90;19.60;;;;;;5042306;28;20476;-50
2023/04/06 11:21:38;;;;;;;13.97;13.27;;;16.50;19.70;;;;;;5060298;28;20613;-52
2023/04/06 11:24:11;;;;;;;15.20;14.30;;;16.10;19.90;;;;;;5060058;28;20506;-50
2023/04/06 11:26:40;;;;;;;13.67;12.97;;;16.00;21.40;;;;;;5060893;28;20522;-51
2023/04/06 11:29:06;;;;;;;14.50;13.73;;;16.10;21.00;;;;;;5060357;28;20494;-46
2023/04/06 11:31:38;;;;;;;14.57;13.77;;;16.30;21.90;;;;;;5060120;28;20419;-45
2023/04/06 11:34:10;;;;;;;13.53;12.83;;;16.50;21.60;;;;;;5060239;28;20455;-47
2023/04/06 11:36:36;;;;;;;13.07;12.37;;;17.40;22.20;;;;;;5060237;28;20773;-45
2023/04/06 11:39:03;;;;;;;13.37;12.67;;;18.40;19.90;;;;;;5060838;28;20415;-42
2023/04/06 11:41:30;;;;;;;12.80;12.10;;;19.40;19.40;;;;;;5060282;28;20623;-47
2023/04/06 11:43:56;;;;;;;14.80;14.00;;;19.60;19.20;;;;;;5060566;28;20420;-42
2023/04/06 11:46:21;;;;;;;14.10;13.30;;;19.80;18.70;;;;;;5060189;28;20458;-43
2023/04/06 11:48:47;;;;;;;15.50;14.67;;;19.60;18.40;;;;;;5059709;28;20649;-42
2023/04/06 11:51:22;;;;;;;14.40;13.70;;;19.20;16.50;;;;;;5059979;28;20276;-42
2023/04/06 11:53:48;;;;;;;14.60;13.90;;;19.00;18.00;;;;;;5059319;28;20200;-42
2023/04/06 11:56:28;;;;;;;15.37;14.57;;;19.20;18.60;;;;;;5059792;28;20811;-45
2023/04/06 11:58:59;;;;;;;14.97;14.13;;;19.00;18.60;;;;;;5059579;28;20210;-42
2023/04/06 12:01:25;;;;;;;15.43;14.53;;;18.20;16.60;;;;;;5059725;28;20480;-42
2023/04/06 12:03:52;;;;;;;15.10;14.20;;;17.40;15.80;;;;;;5059748;28;20431;-44
2023/04/06 12:06:18;;;;;;;14.70;13.80;;;17.40;16.40;;;;;;5060009;28;20461;-42
2023/04/06 12:08:44;;;;;;;16.33;15.50;;;17.80;16.60;;;;;;5059347;28;20675;-46
2023/04/06 12:11:10;;;;;;;15.50;14.50;;;17.90;16.40;;;;;;5059927;28;20185;-43
2023/04/06 12:13:36;;;;;;;14.27;13.57;;;18.60;16.40;;;;;;5059422;28;20451;-41
2023/04/06 12:16:02;;;;;;;15.63;14.60;;;19.50;16.70;;;;;;5059204;28;20426;-40
2023/04/06 12:18:28;;;;;;;15.40;14.60;;;19.90;15.90;;;;;;5059775;28;20189;-46
2023/04/06 12:20:53;;;;;;;13.73;13.10;;;21.00;16.50;;;;;;5059576;28;20724;-41
2023/04/06 12:23:19;;;;;;;14.90;14.07;;;21.20;15.00;;;;;;5059368;28;20232;-42
2023/04/06 12:25:45;;;;;;;16.17;15.30;;;20.80;14.10;;;;;;5059570;28;20194;-46
2023/04/06 12:28:11;;;;;;;15.60;14.77;;;21.40;14.60;;;;;;5058979;28;20419;-42
2023/04/06 12:30:37;;;;;;;14.90;14.10;;;21.60;14.60;;;;;;5059649;28;20906;-41